メインページ
METAR-TAF:

METAR-TAF

空港 :

宮崎空港

宮崎, 日本

緯度: 31-52N, 経度: 131-27E, 海抜: 6m

現時点の気象観測

当レポートは55分前の06:00(UTC)に作成
南/南東の風 14kt
気温 30°C
湿度 84%
気圧 1009 hPa
視程10km以上
高度1500ftの雲はほとんどない
高度4000ftの雲は散在している
千切れ雲あり

METAR: RJFM 180600Z 15014KT 9999 FEW015 SCT040 BKN/// 30/27 Q1009

時間: 15:55 (06:55 UTC)

予報

当レポートは1時間39分前の05:16(UTC)に作成
予報は18日の 06時(UTC)から 19日の 12時(UTC)まで有効
南/南東の風 10kt
視程10km以上
高度3000ftの雲はほとんどない
18日の 07時(UTC)から 18日の 09時(UTC)まで徐々に
西/南西の風 5kt

TAF: RJFM 180516Z 1806/1912 15010KT 9999 FEW030 BECMG 1807/1809 24005KT

4,000以上の空港の気象観測と天気予報(METAR報とTAF報)

利用可能な観測所は地図上に黄色い丸と赤い丸で示す。

丸の上にカーソルを重ねると観測所名を参照できる。

次にクリックすると気象観測と天気予報を参照できる。

マップの切り替え:黒色「×」印の緑ボタンをクリックして拡大、「-」印の緑ボタンをクリックして縮小、緑色の三角印をクリックして隣りの地図に切り替え


METAR-TAF: